createdAt,value
2023-02-09T00:02:25.128Z,102650.03
2023-02-09T00:05:11.752Z,102647.34
2023-02-09T00:07:57.536Z,102653.56
2023-02-09T00:10:42.943Z,102652.34
2023-02-09T00:13:28.711Z,102649.47
2023-02-09T00:16:14.150Z,102657.00
2023-02-09T00:18:59.738Z,102658.28
2023-02-09T00:21:45.162Z,102666.78
2023-02-09T00:24:30.390Z,102677.03
2023-02-09T00:27:16.146Z,102684.91
2023-02-09T00:30:01.934Z,102687.00
2023-02-09T00:32:47.709Z,102684.94
2023-02-09T00:35:33.303Z,102689.81
2023-02-09T00:38:18.573Z,102702.19
2023-02-09T00:41:06.010Z,102709.19
2023-02-09T00:43:51.332Z,102715.00
2023-02-09T00:46:36.617Z,102716.69
2023-02-09T00:49:22.008Z,102725.50
2023-02-09T00:52:09.755Z,102724.34
2023-02-09T00:54:55.250Z,102725.81
2023-02-09T00:57:40.692Z,102738.97
2023-02-09T01:00:26.450Z,102735.22
2023-02-09T01:03:12.314Z,102738.38
2023-02-09T01:05:59.289Z,102744.31
2023-02-09T01:08:44.850Z,102754.34
2023-02-09T01:11:31.026Z,102761.19
2023-02-09T01:14:17.417Z,102769.38
2023-02-09T01:17:02.842Z,102778.47
2023-02-09T01:19:52.858Z,102774.81
2023-02-09T01:22:39.265Z,102773.50
2023-02-09T01:25:24.546Z,102767.38
2023-02-09T01:28:10.092Z,102762.09
2023-02-09T01:30:55.500Z,102758.66
2023-02-09T01:33:41.113Z,102750.72
2023-02-09T01:36:27.446Z,102755.19
2023-02-09T01:39:14.172Z,102761.03
2023-02-09T01:41:59.766Z,102761.31
2023-02-09T01:44:45.364Z,102768.81
2023-02-09T01:47:32.485Z,102767.72
2023-02-09T01:50:18.588Z,102772.47
2023-02-09T01:53:04.453Z,102773.72
2023-02-09T01:56:00.352Z,102775.78
2023-02-09T01:58:46.892Z,102777.03
2023-02-09T02:01:32.751Z,102782.53
2023-02-09T02:04:19.154Z,102785.34
2023-02-09T02:07:27.339Z,102790.25
2023-02-09T02:10:13.135Z,102779.84
2023-02-09T02:13:01.213Z,102788.69
2023-02-09T02:16:23.992Z,102786.03
2023-02-09T02:19:28.014Z,102790.34
2023-02-09T02:23:03.775Z,102779.38
2023-02-09T02:26:28.217Z,102791.47
2023-02-09T02:29:19.882Z,102786.44
2023-02-09T02:32:20.299Z,102780.41
2023-02-09T02:35:14.749Z,102794.25
2023-02-09T02:38:03.461Z,102790.69
2023-02-09T02:40:58.000Z,102797.38
2023-02-09T02:44:05.832Z,102800.16
2023-02-09T02:46:55.248Z,102801.88
2023-02-09T02:49:51.758Z,102812.34
2023-02-09T02:52:40.192Z,102812.03
2023-02-09T02:55:30.456Z,102811.94
2023-02-09T02:58:20.495Z,102814.09
2023-02-09T03:01:11.292Z,102818.31
2023-02-09T03:03:58.543Z,102811.28
2023-02-09T03:06:43.830Z,102804.28
2023-02-09T03:09:29.221Z,102798.94
2023-02-09T03:12:38.532Z,102803.06
2023-02-09T03:15:45.197Z,102807.78
2023-02-09T03:18:30.417Z,102816.16
2023-02-09T03:21:40.102Z,102833.28
2023-02-09T03:24:32.610Z,102835.84
2023-02-09T03:27:47.914Z,102832.34
2023-02-09T03:30:35.714Z,102827.91
2023-02-09T03:33:24.643Z,102825.91
2023-02-09T03:36:16.841Z,102829.03
2023-02-09T03:39:02.607Z,102824.00
2023-02-09T03:41:48.275Z,102816.75
2023-02-09T03:44:33.702Z,102808.50
2023-02-09T03:47:18.975Z,102808.06
2023-02-09T03:50:06.876Z,102807.84
2023-02-09T03:52:52.168Z,102810.75
2023-02-09T03:55:37.648Z,102807.41
2023-02-09T03:58:23.022Z,102804.63
2023-02-09T04:01:10.692Z,102801.38
2023-02-09T04:03:56.134Z,102797.91
2023-02-09T04:06:41.551Z,102803.03
2023-02-09T04:09:27.888Z,102805.28
2023-02-09T04:12:13.307Z,102810.31
2023-02-09T04:14:58.494Z,102804.97
2023-02-09T04:17:44.065Z,102812.56
2023-02-09T04:20:29.483Z,102817.59
2023-02-09T04:23:15.477Z,102819.03
2023-02-09T04:26:01.189Z,102814.69
2023-02-09T04:28:46.475Z,102811.88
2023-02-09T04:31:32.223Z,102810.00
2023-02-09T04:34:17.711Z,102813.00
2023-02-09T04:37:02.856Z,102827.75
2023-02-09T04:39:48.163Z,102830.88
2023-02-09T04:42:33.426Z,102833.34
2023-02-09T04:45:19.206Z,102844.59
2023-02-09T04:48:05.478Z,102857.56
2023-02-09T04:50:51.585Z,102858.34
2023-02-09T04:53:37.994Z,102861.81
2023-02-09T04:56:23.630Z,102857.66
2023-02-09T04:59:28.455Z,102856.66
2023-02-09T05:02:14.136Z,102861.81
2023-02-09T05:04:59.462Z,102867.81
2023-02-09T05:07:44.814Z,102868.50
2023-02-09T05:10:30.183Z,102879.78
2023-02-09T05:13:15.451Z,102879.69
2023-02-09T05:16:05.763Z,102886.47
2023-02-09T05:18:51.434Z,102889.72
2023-02-09T05:21:36.716Z,102896.19
2023-02-09T05:24:22.086Z,102892.41
2023-02-09T05:27:07.408Z,102887.69
2023-02-09T05:29:52.923Z,102888.34
2023-02-09T05:32:38.236Z,102882.88
2023-02-09T05:35:23.698Z,102894.69
2023-02-09T05:38:09.335Z,102880.06
2023-02-09T05:40:54.526Z,102884.84
2023-02-09T05:43:39.916Z,102888.22
2023-02-09T05:46:25.274Z,102891.56
2023-02-09T05:49:10.554Z,102894.00
2023-02-09T05:51:56.038Z,102904.06
2023-02-09T05:54:41.540Z,102905.59
2023-02-09T05:57:26.839Z,102911.38
2023-02-09T06:00:13.096Z,102913.19
2023-02-09T06:02:59.079Z,102907.06
2023-02-09T06:05:45.962Z,102911.03
2023-02-09T06:08:31.389Z,102906.09
2023-02-09T06:11:17.102Z,102916.03
2023-02-09T06:14:02.429Z,102920.38
2023-02-09T06:16:47.933Z,102923.72
2023-02-09T06:19:33.373Z,102928.50
2023-02-09T06:22:18.614Z,102918.88
2023-02-09T06:25:04.472Z,102924.13
2023-02-09T06:27:50.071Z,102918.88
2023-02-09T06:30:35.299Z,102924.66
2023-02-09T06:33:20.919Z,102920.69
2023-02-09T06:36:07.789Z,102925.41
2023-02-09T06:38:53.392Z,102932.41
2023-02-09T06:41:38.702Z,102938.22
2023-02-09T06:44:23.975Z,102940.41
2023-02-09T06:47:09.495Z,102940.41
2023-02-09T06:49:55.097Z,102953.50
2023-02-09T06:52:40.402Z,102949.03
2023-02-09T06:55:26.245Z,102948.38
2023-02-09T06:58:11.607Z,102950.16
2023-02-09T07:01:04.683Z,102961.66
2023-02-09T07:03:50.509Z,102958.19
2023-02-09T07:06:35.653Z,102962.56
2023-02-09T07:09:21.055Z,102967.16
2023-02-09T07:12:06.850Z,102965.59
2023-02-09T07:14:52.407Z,102971.09
2023-02-09T07:17:39.598Z,102958.50
2023-02-09T07:20:24.841Z,102959.25
2023-02-09T07:23:10.090Z,102951.13
2023-02-09T07:25:55.730Z,102942.44
2023-02-09T07:28:42.412Z,102948.22
2023-02-09T07:31:27.828Z,102949.34
2023-02-09T07:34:13.576Z,102942.66
2023-02-09T07:36:59.048Z,102947.56
2023-02-09T07:39:44.778Z,102943.97
2023-02-09T07:42:30.647Z,102936.03
2023-02-09T07:45:20.128Z,102935.81
2023-02-09T07:48:05.693Z,102937.50
2023-02-09T07:50:52.006Z,102951.34
2023-02-09T07:53:37.541Z,102958.16
2023-02-09T07:56:23.997Z,102974.56
2023-02-09T07:59:10.627Z,102978.91
2023-02-09T08:01:56.383Z,102974.56
2023-02-09T08:04:43.616Z,102978.69
2023-02-09T08:07:29.438Z,102985.97
2023-02-09T08:10:16.766Z,102998.50
2023-02-09T08:13:03.624Z,103007.31
2023-02-09T08:15:55.788Z,103006.25
2023-02-09T08:18:50.360Z,103005.00
2023-02-09T08:21:39.248Z,103007.28
2023-02-09T08:24:24.424Z,103011.44
2023-02-09T08:27:10.807Z,103019.72
2023-02-09T08:29:57.587Z,103015.06
2023-02-09T08:32:43.268Z,103014.75
2023-02-09T08:35:30.651Z,103021.34
2023-02-09T08:38:16.040Z,103019.59
2023-02-09T08:41:13.872Z,103031.00
2023-02-09T08:43:59.421Z,103020.50
2023-02-09T08:46:44.935Z,103032.13
2023-02-09T08:49:30.776Z,103030.69
2023-02-09T08:52:16.152Z,103029.09
2023-02-09T08:55:02.169Z,103031.22
2023-02-09T08:57:47.358Z,103036.72
2023-02-09T09:00:32.624Z,103042.28
2023-02-09T09:03:18.089Z,103042.63
2023-02-09T09:06:06.030Z,103038.47
2023-02-09T09:08:51.741Z,103054.09
2023-02-09T09:11:37.331Z,103045.75
2023-02-09T09:14:22.677Z,103049.44
2023-02-09T09:17:08.401Z,103052.25
2023-02-09T09:19:55.976Z,103047.78
2023-02-09T09:22:41.593Z,103047.09
2023-02-09T09:25:27.111Z,103042.81
2023-02-09T09:28:12.789Z,103042.81
2023-02-09T09:31:05.857Z,103043.34
2023-02-09T09:33:51.348Z,103052.53
2023-02-09T09:36:36.705Z,103054.94
2023-02-09T09:39:22.075Z,103066.09
2023-02-09T09:42:20.662Z,103055.97
2023-02-09T09:45:12.598Z,103064.63
2023-02-09T09:47:58.068Z,103060.75
2023-02-09T09:50:44.254Z,103071.28
2023-02-09T09:53:33.517Z,103073.00
2023-02-09T09:56:21.392Z,103065.19
2023-02-09T09:59:15.736Z,103073.34
2023-02-09T10:02:16.947Z,103064.81
2023-02-09T10:05:19.222Z,103056.28
2023-02-09T10:08:10.724Z,103052.00
2023-02-09T10:11:10.036Z,103055.44
2023-02-09T10:13:57.402Z,103052.19
2023-02-09T10:16:44.803Z,103058.25
2023-02-09T10:19:30.775Z,103056.25
2023-02-09T10:22:20.894Z,103059.47
2023-02-09T10:25:39.154Z,103071.06
2023-02-09T10:28:28.020Z,103077.22
2023-02-09T10:31:25.444Z,103075.72
2023-02-09T10:34:18.072Z,103076.97
2023-02-09T10:37:15.863Z,103075.75
2023-02-09T10:40:15.927Z,103071.84
2023-02-09T10:43:04.274Z,103081.63
2023-02-09T10:45:59.567Z,103078.44
2023-02-09T10:48:47.159Z,103084.78
2023-02-09T10:51:33.716Z,103074.97
2023-02-09T10:54:21.452Z,103080.41
2023-02-09T10:57:28.578Z,103079.88
2023-02-09T11:00:17.035Z,103079.50
2023-02-09T11:03:02.258Z,103078.19
2023-02-09T11:06:12.124Z,103075.22
2023-02-09T11:09:14.356Z,103080.97
2023-02-09T11:12:00.906Z,103088.28
2023-02-09T11:14:46.861Z,103092.88
2023-02-09T11:17:40.196Z,103093.25
2023-02-09T11:20:30.899Z,103095.19
2023-02-09T11:23:43.111Z,103097.97
2023-02-09T11:26:51.010Z,103092.16
2023-02-09T11:29:49.506Z,103095.00
2023-02-09T11:32:43.904Z,103096.19
2023-02-09T11:35:51.553Z,103090.31
2023-02-09T11:38:59.524Z,103079.47
2023-02-09T11:42:26.219Z,103080.88
2023-02-09T11:45:23.436Z,103086.50
2023-02-09T11:48:24.523Z,103068.97
2023-02-09T11:51:13.161Z,103062.81
2023-02-09T11:54:33.478Z,103053.25
2023-02-09T11:57:31.781Z,103064.59
2023-02-09T12:00:23.177Z,103065.56
2023-02-09T12:03:12.420Z,103071.09
2023-02-09T12:05:58.214Z,103076.47
2023-02-09T12:09:03.810Z,103079.47
2023-02-09T12:12:04.480Z,103081.81
2023-02-09T12:15:00.536Z,103084.56
2023-02-09T12:17:54.950Z,103086.69
2023-02-09T12:20:40.211Z,103081.34
2023-02-09T12:23:34.784Z,103069.41
2023-02-09T12:26:42.252Z,103072.41
2023-02-09T12:29:40.403Z,103065.53
2023-02-09T12:32:41.895Z,103070.94
2023-02-09T12:35:38.792Z,103049.31
2023-02-09T12:38:24.528Z,103054.16
2023-02-09T12:41:12.865Z,103046.50
2023-02-09T12:44:10.852Z,103050.47
2023-02-09T12:46:57.989Z,103052.00
2023-02-09T12:49:44.580Z,103046.88
2023-02-09T12:52:30.219Z,103047.09
2023-02-09T12:55:22.226Z,103038.88
2023-02-09T12:58:26.436Z,103039.50
2023-02-09T13:01:16.050Z,103044.25
2023-02-09T13:04:05.492Z,103045.59
2023-02-09T13:06:56.922Z,103044.94
2023-02-09T13:09:43.332Z,103041.88
2023-02-09T13:12:42.986Z,103043.22
2023-02-09T13:15:45.238Z,103038.97
2023-02-09T13:18:49.364Z,103040.97
2023-02-09T13:22:16.862Z,103044.09
2023-02-09T13:25:32.434Z,103052.19
2023-02-09T13:28:22.707Z,103054.47
2023-02-09T13:31:30.939Z,103058.28
2023-02-09T13:34:40.059Z,103054.63
2023-02-09T13:37:34.568Z,103047.38
2023-02-09T13:40:24.526Z,103046.34
2023-02-09T13:43:12.786Z,103047.56
2023-02-09T13:46:00.126Z,103057.16
2023-02-09T13:48:45.804Z,103054.84
2023-02-09T13:51:31.100Z,103062.56
2023-02-09T13:54:20.679Z,103047.56
2023-02-09T13:57:28.796Z,103050.91
2023-02-09T14:00:20.561Z,103044.91
2023-02-09T14:03:12.485Z,103044.03
2023-02-09T14:06:22.118Z,103032.72
2023-02-09T14:09:15.919Z,103026.25
2023-02-09T14:12:05.803Z,103037.50
2023-02-09T14:15:15.762Z,103031.53
2023-02-09T14:18:01.246Z,103031.59
2023-02-09T14:20:59.479Z,103026.31
2023-02-09T14:23:49.412Z,103023.97
2023-02-09T14:26:48.824Z,103007.47
2023-02-09T14:29:38.323Z,103016.84
2023-02-09T14:32:33.114Z,103013.69
2023-02-09T14:35:24.817Z,103023.56
2023-02-09T14:38:37.121Z,103023.69
2023-02-09T14:41:31.776Z,103027.34
2023-02-09T14:44:22.103Z,103022.75
2023-02-09T14:47:27.652Z,103025.63
2023-02-09T14:50:19.341Z,103029.97
2023-02-09T14:53:08.181Z,103025.75
2023-02-09T14:55:54.987Z,103037.13
2023-02-09T14:58:40.371Z,103023.47
2023-02-09T15:01:25.804Z,103025.41
2023-02-09T15:04:11.539Z,103024.22
2023-02-09T15:07:01.861Z,103026.88
2023-02-09T15:09:47.874Z,103031.31
2023-02-09T15:12:34.008Z,103036.28
2023-02-09T15:15:21.345Z,103026.22
2023-02-09T15:18:07.694Z,103028.28
2023-02-09T15:20:53.598Z,103033.41
2023-02-09T15:23:39.106Z,103037.84
2023-02-09T15:26:26.910Z,103036.75
2023-02-09T15:29:15.334Z,103035.56
2023-02-09T15:32:00.657Z,103033.25
2023-02-09T15:34:46.892Z,103034.44
2023-02-09T15:37:35.796Z,103037.41
2023-02-09T15:40:45.720Z,103036.47
2023-02-09T15:43:50.156Z,103039.66
2023-02-09T15:46:54.374Z,103044.97
2023-02-09T15:49:39.962Z,103044.78
2023-02-09T15:52:25.516Z,103053.38
2023-02-09T15:55:18.789Z,103047.44
2023-02-09T15:58:04.568Z,103052.78
2023-02-09T16:00:49.899Z,103057.47
2023-02-09T16:03:35.460Z,103051.06
2023-02-09T16:06:26.850Z,103051.88
2023-02-09T16:09:19.446Z,103062.19
2023-02-09T16:12:09.991Z,103064.84
2023-02-09T16:14:55.772Z,103066.56
2023-02-09T16:17:41.849Z,103066.41
2023-02-09T16:20:28.183Z,103070.72
2023-02-09T16:23:20.811Z,103071.38
2023-02-09T16:26:06.626Z,103086.88
2023-02-09T16:28:53.467Z,103082.41
2023-02-09T16:31:38.692Z,103080.47
2023-02-09T16:34:24.113Z,103080.41
2023-02-09T16:37:13.505Z,103087.16
2023-02-09T16:40:01.046Z,103088.84
2023-02-09T16:42:48.552Z,103092.09
2023-02-09T16:45:36.711Z,103091.84
2023-02-09T16:48:28.257Z,103091.69
2023-02-09T16:51:15.766Z,103101.94
2023-02-09T16:54:01.306Z,103098.25
2023-02-09T16:56:54.172Z,103112.00
2023-02-09T16:59:40.233Z,103112.56
2023-02-09T17:02:50.179Z,103128.94
2023-02-09T17:05:37.204Z,103124.47
2023-02-09T17:08:28.293Z,103119.91
2023-02-09T17:11:23.575Z,103120.63
2023-02-09T17:14:08.952Z,103125.66
2023-02-09T17:16:54.433Z,103126.50
2023-02-09T17:19:47.798Z,103125.44
2023-02-09T17:22:33.688Z,103127.88
2023-02-09T17:25:21.544Z,103134.69
2023-02-09T17:28:06.732Z,103142.38
2023-02-09T17:30:57.689Z,103148.28
2023-02-09T17:33:46.010Z,103149.81
2023-02-09T17:36:31.878Z,103141.94
2023-02-09T17:39:19.068Z,103145.25
2023-02-09T17:42:04.596Z,103143.41
2023-02-09T17:44:51.436Z,103142.41
2023-02-09T17:47:36.859Z,103136.19
2023-02-09T17:50:24.369Z,103139.59
2023-02-09T17:53:15.949Z,103135.03
2023-02-09T17:56:02.679Z,103141.94
2023-02-09T17:58:48.320Z,103148.72
2023-02-09T18:01:38.916Z,103151.91
2023-02-09T18:04:28.783Z,103151.72
2023-02-09T18:07:20.208Z,103155.06
2023-02-09T18:10:06.637Z,103158.38
2023-02-09T18:12:52.710Z,103160.88
2023-02-09T18:15:40.626Z,103173.69
2023-02-09T18:18:26.099Z,103176.19
2023-02-09T18:21:14.611Z,103175.19
2023-02-09T18:24:00.134Z,103178.56
2023-02-09T18:26:47.860Z,103178.56
2023-02-09T18:29:33.211Z,103195.03
2023-02-09T18:32:18.615Z,103193.22
2023-02-09T18:35:04.849Z,103188.06
2023-02-09T18:37:50.559Z,103175.00
2023-02-09T18:40:37.470Z,103181.00
2023-02-09T18:43:23.135Z,103173.22
2023-02-09T18:46:13.243Z,103171.47
2023-02-09T18:48:58.616Z,103167.94
2023-02-09T18:51:43.888Z,103163.56
2023-02-09T18:54:31.253Z,103165.09
2023-02-09T18:57:16.448Z,103165.09
2023-02-09T19:00:05.939Z,103164.31
2023-02-09T19:02:54.217Z,103164.22
2023-02-09T19:05:41.239Z,103167.53
2023-02-09T19:08:26.598Z,103171.78
2023-02-09T19:11:20.229Z,103173.50
2023-02-09T19:14:24.422Z,103173.59
2023-02-09T19:17:15.702Z,103165.66
2023-02-09T19:20:04.337Z,103158.66
2023-02-09T19:22:51.674Z,103157.72
2023-02-09T19:25:37.065Z,103158.41
2023-02-09T19:28:22.687Z,103163.44
2023-02-09T19:31:15.576Z,103160.66
2023-02-09T19:34:01.398Z,103163.16
2023-02-09T19:36:46.885Z,103152.56
2023-02-09T19:39:34.981Z,103153.97
2023-02-09T19:42:21.732Z,103145.69
2023-02-09T19:45:07.406Z,103133.81
2023-02-09T19:47:53.104Z,103139.25
2023-02-09T19:50:38.664Z,103141.28
2023-02-09T19:53:25.140Z,103149.66
2023-02-09T19:56:16.938Z,103153.78
2023-02-09T19:59:02.376Z,103164.81
2023-02-09T20:01:47.745Z,103167.13
2023-02-09T20:04:34.491Z,103178.00
2023-02-09T20:07:19.862Z,103182.47
2023-02-09T20:10:05.483Z,103191.13
2023-02-09T20:12:51.145Z,103185.44
2023-02-09T20:15:41.310Z,103190.00
2023-02-09T20:18:26.845Z,103191.88
2023-02-09T20:21:12.916Z,103196.22
2023-02-09T20:23:58.648Z,103198.22
2023-02-09T20:26:46.065Z,103204.38
2023-02-09T20:29:31.742Z,103211.41
2023-02-09T20:32:17.244Z,103214.09
2023-02-09T20:35:05.154Z,103207.16
2023-02-09T20:37:52.873Z,103211.50
2023-02-09T20:40:42.834Z,103210.72
2023-02-09T20:43:47.291Z,103218.47
2023-02-09T20:46:52.453Z,103222.00
2023-02-09T20:49:39.619Z,103220.19
2023-02-09T20:52:25.109Z,103221.06
2023-02-09T20:55:10.564Z,103223.66
2023-02-09T20:57:55.870Z,103217.50
2023-02-09T21:00:42.707Z,103208.75
2023-02-09T21:03:28.539Z,103217.25
2023-02-09T21:06:13.914Z,103223.91
2023-02-09T21:08:59.227Z,103217.75
2023-02-09T21:11:44.978Z,103208.19
2023-02-09T21:14:41.769Z,103206.03
2023-02-09T21:17:28.230Z,103213.22
2023-02-09T21:20:17.666Z,103219.81
2023-02-09T21:23:03.709Z,103217.66
2023-02-09T21:25:49.000Z,103213.09
2023-02-09T21:28:35.872Z,103213.59
2023-02-09T21:31:23.463Z,103197.81
2023-02-09T21:34:13.624Z,103202.00
2023-02-09T21:36:59.045Z,103202.28
2023-02-09T21:39:44.625Z,103207.19
2023-02-09T21:42:31.475Z,103210.16
2023-02-09T21:45:17.105Z,103214.06
2023-02-09T21:48:02.684Z,103213.56
2023-02-09T21:50:48.188Z,103203.44
2023-02-09T21:53:33.474Z,103205.16
2023-02-09T21:56:19.352Z,103204.25
2023-02-09T21:59:04.762Z,103212.09
2023-02-09T22:01:50.111Z,103212.38
2023-02-09T22:04:39.738Z,103232.03
2023-02-09T22:07:25.346Z,103233.34
2023-02-09T22:10:11.530Z,103231.63
2023-02-09T22:12:56.861Z,103233.44
2023-02-09T22:15:43.350Z,103239.19
2023-02-09T22:18:28.712Z,103233.41
2023-02-09T22:21:14.372Z,103227.72
2023-02-09T22:23:59.818Z,103229.38
2023-02-09T22:26:46.510Z,103227.56
2023-02-09T22:29:33.431Z,103226.03
2023-02-09T22:32:20.502Z,103217.66
2023-02-09T22:35:06.417Z,103217.91
2023-02-09T22:37:51.763Z,103217.06
2023-02-09T22:40:37.055Z,103210.72
2023-02-09T22:43:22.481Z,103223.84
2023-02-09T22:46:07.929Z,103216.78
2023-02-09T22:49:02.845Z,103212.19
2023-02-09T22:51:49.719Z,103215.34
2023-02-09T22:54:35.269Z,103211.00
2023-02-09T22:57:20.537Z,103211.09
2023-02-09T23:00:09.982Z,103211.78
2023-02-09T23:02:56.109Z,103215.97
2023-02-09T23:05:41.772Z,103211.38
2023-02-09T23:08:27.049Z,103217.72
2023-02-09T23:11:17.435Z,103221.22
2023-02-09T23:14:09.576Z,103220.31
2023-02-09T23:16:55.819Z,103215.28
2023-02-09T23:19:41.082Z,103210.34
2023-02-09T23:22:26.345Z,103197.13
2023-02-09T23:25:11.460Z,103212.03
2023-02-09T23:27:57.085Z,103212.56
2023-02-09T23:30:43.966Z,103217.28
2023-02-09T23:33:29.525Z,103214.91
2023-02-09T23:36:19.296Z,103209.97
2023-02-09T23:39:06.437Z,103213.25
2023-02-09T23:41:51.940Z,103216.50
2023-02-09T23:44:37.448Z,103224.91
2023-02-09T23:47:22.889Z,103214.59
2023-02-09T23:50:08.479Z,103217.28
2023-02-09T23:52:53.957Z,103212.47
2023-02-09T23:55:39.178Z,103213.59
2023-02-09T23:58:24.863Z,103218.31
